sensor_id;sensor_type;location;lat;lon;timestamp;temperature;humidity
17080;DHT22;8655;57.106;-2.088;2023-01-30T00:01:25;17.70;44.80
17080;DHT22;8655;57.106;-2.088;2023-01-30T00:03:52;17.80;44.90
17080;DHT22;8655;57.106;-2.088;2023-01-30T00:06:18;17.70;44.80
17080;DHT22;8655;57.106;-2.088;2023-01-30T00:08:44;17.70;45.40
17080;DHT22;8655;57.106;-2.088;2023-01-30T00:11:13;17.70;44.80
17080;DHT22;8655;57.106;-2.088;2023-01-30T00:13:40;17.60;44.70
17080;DHT22;8655;57.106;-2.088;2023-01-30T00:16:06;17.70;44.80
17080;DHT22;8655;57.106;-2.088;2023-01-30T00:18:34;17.70;44.80
17080;DHT22;8655;57.106;-2.088;2023-01-30T00:21:03;17.60;44.70
17080;DHT22;8655;57.106;-2.088;2023-01-30T00:23:31;17.60;44.70
17080;DHT22;8655;57.106;-2.088;2023-01-30T00:25:57;17.60;44.70
17080;DHT22;8655;57.106;-2.088;2023-01-30T00:28:22;17.60;44.70
17080;DHT22;8655;57.106;-2.088;2023-01-30T00:30:52;17.60;44.70
17080;DHT22;8655;57.106;-2.088;2023-01-30T00:33:19;17.60;44.70
17080;DHT22;8655;57.106;-2.088;2023-01-30T00:35:47;17.60;44.70
17080;DHT22;8655;57.106;-2.088;2023-01-30T00:38:13;17.60;44.70
17080;DHT22;8655;57.106;-2.088;2023-01-30T00:40:39;17.60;44.70
17080;DHT22;8655;57.106;-2.088;2023-01-30T00:43:05;17.50;44.60
17080;DHT22;8655;57.106;-2.088;2023-01-30T00:45:49;17.50;44.60
17080;DHT22;8655;57.106;-2.088;2023-01-30T00:48:35;17.50;44.60
17080;DHT22;8655;57.106;-2.088;2023-01-30T00:51:01;17.50;44.60
17080;DHT22;8655;57.106;-2.088;2023-01-30T00:53:27;17.40;44.50
17080;DHT22;8655;57.106;-2.088;2023-01-30T00:55:53;17.50;44.60
17080;DHT22;8655;57.106;-2.088;2023-01-30T00:58:20;17.50;44.50
17080;DHT22;8655;57.106;-2.088;2023-01-30T01:00:46;17.40;44.50
17080;DHT22;8655;57.106;-2.088;2023-01-30T01:03:12;17.40;44.50
17080;DHT22;8655;57.106;-2.088;2023-01-30T01:05:38;17.40;44.50
17080;DHT22;8655;57.106;-2.088;2023-01-30T01:08:04;17.40;44.50
17080;DHT22;8655;57.106;-2.088;2023-01-30T01:10:31;17.40;45.00
17080;DHT22;8655;57.106;-2.088;2023-01-30T01:12:57;17.40;44.50
17080;DHT22;8655;57.106;-2.088;2023-01-30T01:15:23;17.40;44.50
17080;DHT22;8655;57.106;-2.088;2023-01-30T01:17:50;17.40;44.40
17080;DHT22;8655;57.106;-2.088;2023-01-30T01:20:17;17.40;44.40
17080;DHT22;8655;57.106;-2.088;2023-01-30T01:22:42;17.30;44.40
17080;DHT22;8655;57.106;-2.088;2023-01-30T01:25:09;17.30;44.30
17080;DHT22;8655;57.106;-2.088;2023-01-30T01:27:36;17.30;44.30
17080;DHT22;8655;57.106;-2.088;2023-01-30T01:30:03;17.30;44.30
17080;DHT22;8655;57.106;-2.088;2023-01-30T01:32:28;17.30;44.30
17080;DHT22;8655;57.106;-2.088;2023-01-30T01:34:54;17.30;44.30
17080;DHT22;8655;57.106;-2.088;2023-01-30T01:37:19;17.30;44.30
17080;DHT22;8655;57.106;-2.088;2023-01-30T01:39:45;17.20;44.30
17080;DHT22;8655;57.106;-2.088;2023-01-30T01:42:34;17.20;44.30
17080;DHT22;8655;57.106;-2.088;2023-01-30T01:45:13;17.20;44.20
17080;DHT22;8655;57.106;-2.088;2023-01-30T01:47:44;17.20;44.20
17080;DHT22;8655;57.106;-2.088;2023-01-30T01:50:24;17.20;44.20
17080;DHT22;8655;57.106;-2.088;2023-01-30T01:52:53;17.20;44.20
17080;DHT22;8655;57.106;-2.088;2023-01-30T01:55:23;17.20;44.20
17080;DHT22;8655;57.106;-2.088;2023-01-30T01:57:57;17.20;44.20
17080;DHT22;8655;57.106;-2.088;2023-01-30T02:00:25;17.20;44.20
17080;DHT22;8655;57.106;-2.088;2023-01-30T02:03:16;17.10;44.10
17080;DHT22;8655;57.106;-2.088;2023-01-30T02:05:46;17.10;44.10
17080;DHT22;8655;57.106;-2.088;2023-01-30T02:08:23;17.10;44.10
17080;DHT22;8655;57.106;-2.088;2023-01-30T02:13:28;17.10;44.10
17080;DHT22;8655;57.106;-2.088;2023-01-30T02:15:58;17.10;44.10
17080;DHT22;8655;57.106;-2.088;2023-01-30T02:18:24;17.10;44.10
17080;DHT22;8655;57.106;-2.088;2023-01-30T02:27:13;17.00;44.10
17080;DHT22;8655;57.106;-2.088;2023-01-30T02:43:31;16.90;43.90
17080;DHT22;8655;57.106;-2.088;2023-01-30T02:46:13;16.90;43.90
17080;DHT22;8655;57.106;-2.088;2023-01-30T02:48:55;16.90;44.00
17080;DHT22;8655;57.106;-2.088;2023-01-30T02:51:26;16.90;43.90
17080;DHT22;8655;57.106;-2.088;2023-01-30T02:53:53;16.90;43.90
17080;DHT22;8655;57.106;-2.088;2023-01-30T02:56:18;16.90;43.90
17080;DHT22;8655;57.106;-2.088;2023-01-30T02:58:48;16.90;43.90
17080;DHT22;8655;57.106;-2.088;2023-01-30T03:09:58;16.80;43.80
17080;DHT22;8655;57.106;-2.088;2023-01-30T03:17:46;16.80;43.80
17080;DHT22;8655;57.106;-2.088;2023-01-30T03:20:14;16.80;43.80
17080;DHT22;8655;57.106;-2.088;2023-01-30T03:22:40;16.80;43.80
17080;DHT22;8655;57.106;-2.088;2023-01-30T03:25:07;16.80;43.80
17080;DHT22;8655;57.106;-2.088;2023-01-30T03:27:34;16.80;43.80
17080;DHT22;8655;57.106;-2.088;2023-01-30T03:30:00;16.80;43.80
17080;DHT22;8655;57.106;-2.088;2023-01-30T03:32:25;16.80;43.80
17080;DHT22;8655;57.106;-2.088;2023-01-30T03:34:51;16.70;43.70
17080;DHT22;8655;57.106;-2.088;2023-01-30T03:37:17;16.70;43.80
17080;DHT22;8655;57.106;-2.088;2023-01-30T03:39:43;16.70;43.70
17080;DHT22;8655;57.106;-2.088;2023-01-30T03:42:08;16.70;43.70
17080;DHT22;8655;57.106;-2.088;2023-01-30T03:44:34;16.70;43.70
17080;DHT22;8655;57.106;-2.088;2023-01-30T03:47:00;16.70;43.70
17080;DHT22;8655;57.106;-2.088;2023-01-30T03:49:25;16.70;43.70
17080;DHT22;8655;57.106;-2.088;2023-01-30T03:51:51;16.70;43.70
17080;DHT22;8655;57.106;-2.088;2023-01-30T03:54:17;16.70;43.70
17080;DHT22;8655;57.106;-2.088;2023-01-30T03:56:42;16.70;43.70
17080;DHT22;8655;57.106;-2.088;2023-01-30T03:59:08;16.60;43.60
17080;DHT22;8655;57.106;-2.088;2023-01-30T04:01:34;16.60;43.60
17080;DHT22;8655;57.106;-2.088;2023-01-30T04:03:59;16.60;43.60
17080;DHT22;8655;57.106;-2.088;2023-01-30T04:06:25;16.60;43.60
17080;DHT22;8655;57.106;-2.088;2023-01-30T04:08:53;16.60;43.60
17080;DHT22;8655;57.106;-2.088;2023-01-30T04:11:20;16.60;43.60
17080;DHT22;8655;57.106;-2.088;2023-01-30T04:13:46;16.60;43.60
17080;DHT22;8655;57.106;-2.088;2023-01-30T04:16:17;16.60;43.60
17080;DHT22;8655;57.106;-2.088;2023-01-30T04:18:43;16.50;43.50
17080;DHT22;8655;57.106;-2.088;2023-01-30T04:21:09;16.60;43.60
17080;DHT22;8655;57.106;-2.088;2023-01-30T04:23:35;16.60;43.60
17080;DHT22;8655;57.106;-2.088;2023-01-30T04:26:00;16.50;43.50
17080;DHT22;8655;57.106;-2.088;2023-01-30T04:28:26;16.60;43.60
17080;DHT22;8655;57.106;-2.088;2023-01-30T04:30:52;16.60;43.60
17080;DHT22;8655;57.106;-2.088;2023-01-30T04:33:18;16.50;43.50
17080;DHT22;8655;57.106;-2.088;2023-01-30T04:36:10;16.50;43.50
17080;DHT22;8655;57.106;-2.088;2023-01-30T04:38:37;16.50;43.50
17080;DHT22;8655;57.106;-2.088;2023-01-30T04:41:04;16.50;43.50
17080;DHT22;8655;57.106;-2.088;2023-01-30T04:43:30;16.50;43.50
17080;DHT22;8655;57.106;-2.088;2023-01-30T04:45:56;16.50;43.50
17080;DHT22;8655;57.106;-2.088;2023-01-30T04:48:23;16.50;43.60
17080;DHT22;8655;57.106;-2.088;2023-01-30T04:50:52;16.50;43.50
17080;DHT22;8655;57.106;-2.088;2023-01-30T04:53:18;16.50;43.50
17080;DHT22;8655;57.106;-2.088;2023-01-30T04:55:45;16.50;43.50
17080;DHT22;8655;57.106;-2.088;2023-01-30T04:58:11;16.40;43.40
17080;DHT22;8655;57.106;-2.088;2023-01-30T05:00:37;16.40;43.40
17080;DHT22;8655;57.106;-2.088;2023-01-30T05:03:03;16.40;43.50
17080;DHT22;8655;57.106;-2.088;2023-01-30T05:05:28;16.40;43.40
17080;DHT22;8655;57.106;-2.088;2023-01-30T05:07:54;16.40;43.40
17080;DHT22;8655;57.106;-2.088;2023-01-30T05:10:20;16.40;43.40
17080;DHT22;8655;57.106;-2.088;2023-01-30T05:12:46;16.40;43.40
17080;DHT22;8655;57.106;-2.088;2023-01-30T05:15:12;16.40;43.40
17080;DHT22;8655;57.106;-2.088;2023-01-30T05:17:39;16.40;43.40
17080;DHT22;8655;57.106;-2.088;2023-01-30T05:20:07;16.30;43.30
17080;DHT22;8655;57.106;-2.088;2023-01-30T05:22:33;16.30;43.30
17080;DHT22;8655;57.106;-2.088;2023-01-30T05:24:58;16.30;43.30
17080;DHT22;8655;57.106;-2.088;2023-01-30T05:27:24;16.30;43.30
17080;DHT22;8655;57.106;-2.088;2023-01-30T05:29:50;16.30;43.30
17080;DHT22;8655;57.106;-2.088;2023-01-30T05:32:17;16.30;43.30
17080;DHT22;8655;57.106;-2.088;2023-01-30T05:34:43;16.30;43.30
17080;DHT22;8655;57.106;-2.088;2023-01-30T05:37:10;16.30;43.30
17080;DHT22;8655;57.106;-2.088;2023-01-30T05:39:36;16.30;43.30
17080;DHT22;8655;57.106;-2.088;2023-01-30T05:42:03;16.30;43.30
17080;DHT22;8655;57.106;-2.088;2023-01-30T05:44:29;16.30;43.30
17080;DHT22;8655;57.106;-2.088;2023-01-30T05:46:54;16.20;43.20
17080;DHT22;8655;57.106;-2.088;2023-01-30T05:49:20;16.20;43.20
17080;DHT22;8655;57.106;-2.088;2023-01-30T05:51:46;16.20;43.20
17080;DHT22;8655;57.106;-2.088;2023-01-30T05:54:12;16.20;43.30
17080;DHT22;8655;57.106;-2.088;2023-01-30T05:56:37;16.20;43.20
17080;DHT22;8655;57.106;-2.088;2023-01-30T05:59:03;16.20;43.20
17080;DHT22;8655;57.106;-2.088;2023-01-30T06:01:29;16.20;43.20
17080;DHT22;8655;57.106;-2.088;2023-01-30T06:03:56;16.20;43.20
17080;DHT22;8655;57.106;-2.088;2023-01-30T06:06:22;16.20;43.20
17080;DHT22;8655;57.106;-2.088;2023-01-30T06:08:51;16.20;43.20
17080;DHT22;8655;57.106;-2.088;2023-01-30T06:11:17;16.20;43.20
17080;DHT22;8655;57.106;-2.088;2023-01-30T06:13:43;16.20;43.20
17080;DHT22;8655;57.106;-2.088;2023-01-30T06:16:11;16.10;43.10
17080;DHT22;8655;57.106;-2.088;2023-01-30T06:18:38;16.10;43.20
17080;DHT22;8655;57.106;-2.088;2023-01-30T06:21:04;16.10;43.20
17080;DHT22;8655;57.106;-2.088;2023-01-30T06:23:30;16.10;43.20
17080;DHT22;8655;57.106;-2.088;2023-01-30T06:25:56;16.10;43.10
17080;DHT22;8655;57.106;-2.088;2023-01-30T06:28:23;16.10;43.20
17080;DHT22;8655;57.106;-2.088;2023-01-30T06:30:49;16.10;43.20
17080;DHT22;8655;57.106;-2.088;2023-01-30T06:33:15;16.10;43.30
17080;DHT22;8655;57.106;-2.088;2023-01-30T06:35:42;16.10;43.30
17080;DHT22;8655;57.106;-2.088;2023-01-30T06:38:09;16.20;43.30
17080;DHT22;8655;57.106;-2.088;2023-01-30T06:40:36;16.20;43.30
17080;DHT22;8655;57.106;-2.088;2023-01-30T06:43:02;16.20;43.30
17080;DHT22;8655;57.106;-2.088;2023-01-30T06:45:28;16.30;43.40
17080;DHT22;8655;57.106;-2.088;2023-01-30T06:47:54;16.30;43.30
17080;DHT22;8655;57.106;-2.088;2023-01-30T06:50:23;16.30;43.30
17080;DHT22;8655;57.106;-2.088;2023-01-30T06:52:49;16.40;43.30
17080;DHT22;8655;57.106;-2.088;2023-01-30T06:55:17;16.50;43.40
17080;DHT22;8655;57.106;-2.088;2023-01-30T06:57:44;16.50;43.30
17080;DHT22;8655;57.106;-2.088;2023-01-30T07:00:15;16.50;43.30
17080;DHT22;8655;57.106;-2.088;2023-01-30T07:02:42;16.60;43.50
17080;DHT22;8655;57.106;-2.088;2023-01-30T07:05:08;16.60;43.40
17080;DHT22;8655;57.106;-2.088;2023-01-30T07:07:34;16.70;43.40
17080;DHT22;8655;57.106;-2.088;2023-01-30T07:10:00;16.70;43.40
17080;DHT22;8655;57.106;-2.088;2023-01-30T07:12:26;16.80;43.50
17080;DHT22;8655;57.106;-2.088;2023-01-30T07:14:53;16.80;43.40
17080;DHT22;8655;57.106;-2.088;2023-01-30T07:17:19;16.90;43.50
17080;DHT22;8655;57.106;-2.088;2023-01-30T07:19:45;16.90;43.50
17080;DHT22;8655;57.106;-2.088;2023-01-30T07:22:11;17.00;43.60
17080;DHT22;8655;57.106;-2.088;2023-01-30T07:24:37;17.00;43.50
17080;DHT22;8655;57.106;-2.088;2023-01-30T07:27:06;17.10;43.60
17080;DHT22;8655;57.106;-2.088;2023-01-30T07:29:34;17.10;43.60
17080;DHT22;8655;57.106;-2.088;2023-01-30T07:32:00;17.20;44.20
17080;DHT22;8655;57.106;-2.088;2023-01-30T07:34:25;17.20;43.60
17080;DHT22;8655;57.106;-2.088;2023-01-30T07:36:51;17.30;43.70
17080;DHT22;8655;57.106;-2.088;2023-01-30T07:39:16;17.30;43.70
17080;DHT22;8655;57.106;-2.088;2023-01-30T07:41:42;17.30;43.70
17080;DHT22;8655;57.106;-2.088;2023-01-30T07:44:08;17.40;43.80
17080;DHT22;8655;57.106;-2.088;2023-01-30T07:46:33;17.40;43.70
17080;DHT22;8655;57.106;-2.088;2023-01-30T07:49:00;17.40;43.70
17080;DHT22;8655;57.106;-2.088;2023-01-30T07:51:26;17.50;43.70
17080;DHT22;8655;57.106;-2.088;2023-01-30T07:53:52;17.50;43.80
17080;DHT22;8655;57.106;-2.088;2023-01-30T07:56:18;17.60;43.80
17080;DHT22;8655;57.106;-2.088;2023-01-30T07:58:46;17.60;43.80
17080;DHT22;8655;57.106;-2.088;2023-01-30T08:01:12;17.70;43.90
17080;DHT22;8655;57.106;-2.088;2023-01-30T08:03:38;17.70;43.80
17080;DHT22;8655;57.106;-2.088;2023-01-30T08:06:03;17.80;43.90
17080;DHT22;8655;57.106;-2.088;2023-01-30T08:08:29;17.80;43.90
17080;DHT22;8655;57.106;-2.088;2023-01-30T08:10:55;17.80;43.90
17080;DHT22;8655;57.106;-2.088;2023-01-30T08:13:20;17.90;44.00
17080;DHT22;8655;57.106;-2.088;2023-01-30T08:15:46;17.90;43.90
17080;DHT22;8655;57.106;-2.088;2023-01-30T08:18:12;17.90;44.00
17080;DHT22;8655;57.106;-2.088;2023-01-30T08:20:37;18.00;44.00
17080;DHT22;8655;57.106;-2.088;2023-01-30T08:23:03;18.00;44.00
17080;DHT22;8655;57.106;-2.088;2023-01-30T08:25:29;18.10;44.00
17080;DHT22;8655;57.106;-2.088;2023-01-30T08:27:57;18.10;44.00
17080;DHT22;8655;57.106;-2.088;2023-01-30T08:30:23;18.10;44.60
17080;DHT22;8655;57.106;-2.088;2023-01-30T08:32:48;18.20;44.00
17080;DHT22;8655;57.106;-2.088;2023-01-30T08:35:14;18.20;44.00
17080;DHT22;8655;57.106;-2.088;2023-01-30T08:37:40;18.20;44.00
17080;DHT22;8655;57.106;-2.088;2023-01-30T08:40:07;18.20;44.00
17080;DHT22;8655;57.106;-2.088;2023-01-30T08:42:33;18.20;44.00
17080;DHT22;8655;57.106;-2.088;2023-01-30T08:44:58;18.20;44.00
17080;DHT22;8655;57.106;-2.088;2023-01-30T08:47:24;18.20;44.00
17080;DHT22;8655;57.106;-2.088;2023-01-30T08:49:50;18.30;44.10
17080;DHT22;8655;57.106;-2.088;2023-01-30T08:52:17;18.30;44.10
17080;DHT22;8655;57.106;-2.088;2023-01-30T08:54:43;18.20;44.00
17080;DHT22;8655;57.106;-2.088;2023-01-30T08:57:09;18.20;44.00
17080;DHT22;8655;57.106;-2.088;2023-01-30T08:59:35;18.20;44.10
17080;DHT22;8655;57.106;-2.088;2023-01-30T09:02:01;18.20;44.00
17080;DHT22;8655;57.106;-2.088;2023-01-30T09:04:28;18.30;44.10
17080;DHT22;8655;57.106;-2.088;2023-01-30T09:06:54;18.30;44.10
17080;DHT22;8655;57.106;-2.088;2023-01-30T09:09:20;18.20;44.00
17080;DHT22;8655;57.106;-2.088;2023-01-30T09:11:46;18.20;44.60
17080;DHT22;8655;57.106;-2.088;2023-01-30T09:14:15;18.20;44.00
17080;DHT22;8655;57.106;-2.088;2023-01-30T09:16:47;18.20;44.00
17080;DHT22;8655;57.106;-2.088;2023-01-30T09:19:22;18.10;44.00
17080;DHT22;8655;57.106;-2.088;2023-01-30T09:21:49;18.10;44.00
17080;DHT22;8655;57.106;-2.088;2023-01-30T09:24:15;18.10;44.00
17080;DHT22;8655;57.106;-2.088;2023-01-30T09:26:41;18.10;44.10
17080;DHT22;8655;57.106;-2.088;2023-01-30T09:29:12;18.10;44.00
17080;DHT22;8655;57.106;-2.088;2023-01-30T09:31:39;18.10;44.10
17080;DHT22;8655;57.106;-2.088;2023-01-30T09:34:05;18.10;44.10
17080;DHT22;8655;57.106;-2.088;2023-01-30T09:36:31;18.00;44.00
17080;DHT22;8655;57.106;-2.088;2023-01-30T09:38:56;18.00;44.00
17080;DHT22;8655;57.106;-2.088;2023-01-30T09:41:50;18.00;44.00
17080;DHT22;8655;57.106;-2.088;2023-01-30T09:47:13;17.90;43.90
17080;DHT22;8655;57.106;-2.088;2023-01-30T09:55:21;17.90;43.90
17080;DHT22;8655;57.106;-2.088;2023-01-30T09:57:48;17.90;44.00
17080;DHT22;8655;57.106;-2.088;2023-01-30T10:03:22;17.80;43.90
17080;DHT22;8655;57.106;-2.088;2023-01-30T10:05:56;17.80;43.90
17080;DHT22;8655;57.106;-2.088;2023-01-30T10:08:45;17.80;44.50
17080;DHT22;8655;57.106;-2.088;2023-01-30T10:28:10;17.70;43.90
17080;DHT22;8655;57.106;-2.088;2023-01-30T10:30:37;17.60;43.80
17080;DHT22;8655;57.106;-2.088;2023-01-30T10:33:31;17.60;43.80
17080;DHT22;8655;57.106;-2.088;2023-01-30T10:36:06;17.60;43.80
17080;DHT22;8655;57.106;-2.088;2023-01-30T10:38:43;17.60;43.80
17080;DHT22;8655;57.106;-2.088;2023-01-30T10:41:27;17.50;43.80
17080;DHT22;8655;57.106;-2.088;2023-01-30T10:44:05;17.50;43.80
17080;DHT22;8655;57.106;-2.088;2023-01-30T10:49:38;17.50;43.70
17080;DHT22;8655;57.106;-2.088;2023-01-30T11:01:00;17.50;43.80
17080;DHT22;8655;57.106;-2.088;2023-01-30T11:03:43;17.40;43.70
17080;DHT22;8655;57.106;-2.088;2023-01-30T11:06:17;17.40;43.70
17080;DHT22;8655;57.106;-2.088;2023-01-30T11:08:43;17.50;43.80
17080;DHT22;8655;57.106;-2.088;2023-01-30T11:11:49;17.40;43.70
17080;DHT22;8655;57.106;-2.088;2023-01-30T11:14:16;17.40;43.70
17080;DHT22;8655;57.106;-2.088;2023-01-30T11:16:52;17.40;43.70
17080;DHT22;8655;57.106;-2.088;2023-01-30T11:19:21;17.40;43.70
17080;DHT22;8655;57.106;-2.088;2023-01-30T11:21:59;17.40;43.70
17080;DHT22;8655;57.106;-2.088;2023-01-30T11:24:43;17.40;43.70
17080;DHT22;8655;57.106;-2.088;2023-01-30T11:27:11;17.40;43.70
17080;DHT22;8655;57.106;-2.088;2023-01-30T11:29:41;17.40;43.70
17080;DHT22;8655;57.106;-2.088;2023-01-30T11:32:14;17.30;43.60
17080;DHT22;8655;57.106;-2.088;2023-01-30T11:37:40;17.30;43.60
17080;DHT22;8655;57.106;-2.088;2023-01-30T11:42:46;17.30;43.60
17080;DHT22;8655;57.106;-2.088;2023-01-30T11:45:13;17.30;43.60
17080;DHT22;8655;57.106;-2.088;2023-01-30T11:47:48;17.30;43.60
17080;DHT22;8655;57.106;-2.088;2023-01-30T11:50:16;17.30;43.60
17080;DHT22;8655;57.106;-2.088;2023-01-30T11:52:44;17.30;43.60
17080;DHT22;8655;57.106;-2.088;2023-01-30T11:55:15;17.30;43.60
17080;DHT22;8655;57.106;-2.088;2023-01-30T11:57:48;17.30;43.60
17080;DHT22;8655;57.106;-2.088;2023-01-30T12:00:21;17.30;43.60
17080;DHT22;8655;57.106;-2.088;2023-01-30T12:02:49;17.30;43.60
17080;DHT22;8655;57.106;-2.088;2023-01-30T12:07:50;17.30;43.60
17080;DHT22;8655;57.106;-2.088;2023-01-30T12:10:30;17.20;43.50
17080;DHT22;8655;57.106;-2.088;2023-01-30T12:13:01;17.20;43.50
17080;DHT22;8655;57.106;-2.088;2023-01-30T12:15:33;17.20;43.50
17080;DHT22;8655;57.106;-2.088;2023-01-30T12:20:59;17.20;43.50
17080;DHT22;8655;57.106;-2.088;2023-01-30T12:26:35;17.20;43.60
17080;DHT22;8655;57.106;-2.088;2023-01-30T12:32:16;17.20;43.50
17080;DHT22;8655;57.106;-2.088;2023-01-30T12:34:44;17.20;43.50
17080;DHT22;8655;57.106;-2.088;2023-01-30T12:45:34;17.10;43.50
17080;DHT22;8655;57.106;-2.088;2023-01-30T12:56:51;17.10;43.50
17080;DHT22;8655;57.106;-2.088;2023-01-30T12:59:48;17.10;43.50
17080;DHT22;8655;57.106;-2.088;2023-01-30T13:02:30;17.10;43.50
17080;DHT22;8655;57.106;-2.088;2023-01-30T13:18:43;17.10;43.50
17080;DHT22;8655;57.106;-2.088;2023-01-30T13:21:35;17.00;43.40
17080;DHT22;8655;57.106;-2.088;2023-01-30T13:24:13;17.10;43.50
17080;DHT22;8655;57.106;-2.088;2023-01-30T13:26:42;17.10;43.50
17080;DHT22;8655;57.106;-2.088;2023-01-30T13:29:30;17.00;43.40
17080;DHT22;8655;57.106;-2.088;2023-01-30T13:31:58;17.00;43.40
17080;DHT22;8655;57.106;-2.088;2023-01-30T13:34:41;17.00;43.40
17080;DHT22;8655;57.106;-2.088;2023-01-30T13:37:14;17.00;43.40
17080;DHT22;8655;57.106;-2.088;2023-01-30T13:39:50;17.00;43.40
17080;DHT22;8655;57.106;-2.088;2023-01-30T13:42:37;17.00;44.00
17080;DHT22;8655;57.106;-2.088;2023-01-30T13:45:05;17.00;43.40
17080;DHT22;8655;57.106;-2.088;2023-01-30T13:50:53;17.00;43.40
17080;DHT22;8655;57.106;-2.088;2023-01-30T14:01:16;17.00;43.50
17080;DHT22;8655;57.106;-2.088;2023-01-30T14:03:42;17.00;43.40
17080;DHT22;8655;57.106;-2.088;2023-01-30T14:08:56;17.00;43.40
17080;DHT22;8655;57.106;-2.088;2023-01-30T14:11:32;17.00;43.50
17080;DHT22;8655;57.106;-2.088;2023-01-30T14:14:21;17.00;43.40
17080;DHT22;8655;57.106;-2.088;2023-01-30T14:17:05;17.00;43.50
17080;DHT22;8655;57.106;-2.088;2023-01-30T14:19:35;17.00;43.40
17080;DHT22;8655;57.106;-2.088;2023-01-30T14:22:18;17.00;43.40
17080;DHT22;8655;57.106;-2.088;2023-01-30T14:24:44;17.00;43.40
17080;DHT22;8655;57.106;-2.088;2023-01-30T14:27:24;16.90;43.40
17080;DHT22;8655;57.106;-2.088;2023-01-30T14:29:53;16.90;43.40
17080;DHT22;8655;57.106;-2.088;2023-01-30T14:34:48;16.90;43.40
17080;DHT22;8655;57.106;-2.088;2023-01-30T14:37:45;16.90;43.40
17080;DHT22;8655;57.106;-2.088;2023-01-30T14:45:54;16.90;43.40
17080;DHT22;8655;57.106;-2.088;2023-01-30T14:56:19;16.90;43.40
17080;DHT22;8655;57.106;-2.088;2023-01-30T14:59:00;16.90;43.40
17080;DHT22;8655;57.106;-2.088;2023-01-30T15:04:27;16.90;43.40
17080;DHT22;8655;57.106;-2.088;2023-01-30T15:06:54;16.90;43.40
17080;DHT22;8655;57.106;-2.088;2023-01-30T15:09:24;16.90;43.40
17080;DHT22;8655;57.106;-2.088;2023-01-30T15:12:24;16.90;43.40
17080;DHT22;8655;57.106;-2.088;2023-01-30T15:17:57;16.90;43.40
17080;DHT22;8655;57.106;-2.088;2023-01-30T15:26:17;16.80;43.30
17080;DHT22;8655;57.106;-2.088;2023-01-30T15:31:23;16.80;43.30
17080;DHT22;8655;57.106;-2.088;2023-01-30T15:33:52;16.80;43.30
17080;DHT22;8655;57.106;-2.088;2023-01-30T15:36:32;16.80;43.30
17080;DHT22;8655;57.106;-2.088;2023-01-30T15:41:43;16.80;43.30
17080;DHT22;8655;57.106;-2.088;2023-01-30T15:50:03;16.80;43.30
17080;DHT22;8655;57.106;-2.088;2023-01-30T15:52:36;16.80;43.90
17080;DHT22;8655;57.106;-2.088;2023-01-30T15:55:02;16.80;43.30
17080;DHT22;8655;57.106;-2.088;2023-01-30T15:57:33;16.80;43.30
17080;DHT22;8655;57.106;-2.088;2023-01-30T15:59:59;16.80;43.30
17080;DHT22;8655;57.106;-2.088;2023-01-30T16:02:34;16.80;43.30
17080;DHT22;8655;57.106;-2.088;2023-01-30T16:05:14;16.80;43.30
17080;DHT22;8655;57.106;-2.088;2023-01-30T16:07:41;16.80;43.30
17080;DHT22;8655;57.106;-2.088;2023-01-30T16:10:12;16.80;43.30
17080;DHT22;8655;57.106;-2.088;2023-01-30T16:12:38;16.80;43.30
17080;DHT22;8655;57.106;-2.088;2023-01-30T16:15:13;16.80;43.30
17080;DHT22;8655;57.106;-2.088;2023-01-30T16:17:40;16.80;43.30
17080;DHT22;8655;57.106;-2.088;2023-01-30T16:20:14;16.80;43.30
17080;DHT22;8655;57.106;-2.088;2023-01-30T16:22:42;16.80;43.40
17080;DHT22;8655;57.106;-2.088;2023-01-30T16:25:19;16.70;43.30
17080;DHT22;8655;57.106;-2.088;2023-01-30T16:27:47;16.70;43.30
17080;DHT22;8655;57.106;-2.088;2023-01-30T16:30:20;16.70;43.30
17080;DHT22;8655;57.106;-2.088;2023-01-30T16:32:46;16.70;43.30
17080;DHT22;8655;57.106;-2.088;2023-01-30T16:37:48;16.70;43.30
17080;DHT22;8655;57.106;-2.088;2023-01-30T16:43:30;16.70;43.30
17080;DHT22;8655;57.106;-2.088;2023-01-30T16:49:57;16.70;43.30
17080;DHT22;8655;57.106;-2.088;2023-01-30T16:52:18;16.70;43.30
17080;DHT22;8655;57.106;-2.088;2023-01-30T16:54:51;16.70;43.30
17080;DHT22;8655;57.106;-2.088;2023-01-30T16:57:30;16.70;43.30
17080;DHT22;8655;57.106;-2.088;2023-01-30T17:00:02;16.70;43.30
17080;DHT22;8655;57.106;-2.088;2023-01-30T17:02:36;16.70;43.30
17080;DHT22;8655;57.106;-2.088;2023-01-30T17:05:30;16.70;43.30
17080;DHT22;8655;57.106;-2.088;2023-01-30T17:08:01;16.60;43.20
17080;DHT22;8655;57.106;-2.088;2023-01-30T17:12:53;16.60;43.20
17080;DHT22;8655;57.106;-2.088;2023-01-30T17:17:45;16.60;43.20
17080;DHT22;8655;57.106;-2.088;2023-01-30T17:20:12;16.60;43.20
17080;DHT22;8655;57.106;-2.088;2023-01-30T17:22:42;16.60;43.20
17080;DHT22;8655;57.106;-2.088;2023-01-30T17:27:57;16.60;43.20
17080;DHT22;8655;57.106;-2.088;2023-01-30T17:30:23;16.60;43.20
17080;DHT22;8655;57.106;-2.088;2023-01-30T17:32:49;16.60;43.20
17080;DHT22;8655;57.106;-2.088;2023-01-30T17:35:15;16.60;43.20
17080;DHT22;8655;57.106;-2.088;2023-01-30T17:37:41;16.60;43.20
17080;DHT22;8655;57.106;-2.088;2023-01-30T17:40:16;16.60;43.20
17080;DHT22;8655;57.106;-2.088;2023-01-30T17:42:41;16.60;43.30
17080;DHT22;8655;57.106;-2.088;2023-01-30T17:45:07;16.60;43.20
17080;DHT22;8655;57.106;-2.088;2023-01-30T17:47:35;16.60;43.20
17080;DHT22;8655;57.106;-2.088;2023-01-30T17:50:00;16.60;43.20
17080;DHT22;8655;57.106;-2.088;2023-01-30T17:52:26;16.60;43.20
17080;DHT22;8655;57.106;-2.088;2023-01-30T17:54:52;16.60;43.20
17080;DHT22;8655;57.106;-2.088;2023-01-30T17:57:17;16.60;43.20
17080;DHT22;8655;57.106;-2.088;2023-01-30T17:59:44;16.60;43.20
17080;DHT22;8655;57.106;-2.088;2023-01-30T18:02:11;16.60;43.20
17080;DHT22;8655;57.106;-2.088;2023-01-30T18:04:37;16.50;43.10
17080;DHT22;8655;57.106;-2.088;2023-01-30T18:07:06;16.50;43.20
17080;DHT22;8655;57.106;-2.088;2023-01-30T18:09:35;16.60;43.20
17080;DHT22;8655;57.106;-2.088;2023-01-30T18:12:02;16.60;43.20
17080;DHT22;8655;57.106;-2.088;2023-01-30T18:14:28;16.60;43.30
17080;DHT22;8655;57.106;-2.088;2023-01-30T18:16:54;16.60;43.20
17080;DHT22;8655;57.106;-2.088;2023-01-30T18:19:25;16.50;43.20
17080;DHT22;8655;57.106;-2.088;2023-01-30T18:21:51;16.50;43.20
17080;DHT22;8655;57.106;-2.088;2023-01-30T18:24:17;16.60;43.20
17080;DHT22;8655;57.106;-2.088;2023-01-30T18:26:43;16.60;43.30
17080;DHT22;8655;57.106;-2.088;2023-01-30T18:29:09;16.60;43.30
17080;DHT22;8655;57.106;-2.088;2023-01-30T18:31:36;16.50;43.30
17080;DHT22;8655;57.106;-2.088;2023-01-30T18:34:02;16.60;43.40
17080;DHT22;8655;57.106;-2.088;2023-01-30T18:36:28;16.60;43.40
17080;DHT22;8655;57.106;-2.088;2023-01-30T18:38:54;16.70;43.40
17080;DHT22;8655;57.106;-2.088;2023-01-30T18:41:23;16.70;43.40
17080;DHT22;8655;57.106;-2.088;2023-01-30T18:44:05;16.80;43.50
17080;DHT22;8655;57.106;-2.088;2023-01-30T18:46:31;16.80;43.40
17080;DHT22;8655;57.106;-2.088;2023-01-30T18:48:58;16.90;43.50
17080;DHT22;8655;57.106;-2.088;2023-01-30T18:51:29;16.90;43.50
17080;DHT22;8655;57.106;-2.088;2023-01-30T18:53:55;17.00;43.60
17080;DHT22;8655;57.106;-2.088;2023-01-30T18:56:24;17.00;43.50
17080;DHT22;8655;57.106;-2.088;2023-01-30T18:58:50;17.10;43.60